createdAt,value
2019-02-28T00:01:32.067Z,32.17
2019-02-28T00:03:59.556Z,32.73
2019-02-28T00:06:27.085Z,33.20
2019-02-28T00:08:54.624Z,33.53
2019-02-28T00:11:22.108Z,32.30
2019-02-28T00:13:52.315Z,30.63
2019-02-28T00:16:18.912Z,32.90
2019-02-28T00:18:49.648Z,30.70
2019-02-28T00:21:15.742Z,31.03
2019-02-28T00:23:43.242Z,31.23
2019-02-28T00:26:11.555Z,32.00
2019-02-28T00:28:39.984Z,30.70
2019-02-28T00:31:07.482Z,32.77
2019-02-28T00:33:35.002Z,33.87
2019-02-28T00:36:02.526Z,32.87
2019-02-28T00:38:30.428Z,30.40
2019-02-28T00:40:57.966Z,33.57
2019-02-28T00:43:25.812Z,33.90
2019-02-28T00:45:53.443Z,34.43
2019-02-28T00:48:21.732Z,37.13
2019-02-28T00:50:49.830Z,35.80
2019-02-28T00:53:17.383Z,34.90
2019-02-28T00:55:45.928Z,36.43
2019-02-28T00:58:14.182Z,37.27
2019-02-28T01:00:41.705Z,38.63
2019-02-28T01:03:09.264Z,36.20
2019-02-28T01:05:37.287Z,36.43
2019-02-28T01:08:04.934Z,38.57
2019-02-28T01:10:35.324Z,39.07
2019-02-28T01:13:01.815Z,39.03
2019-02-28T01:15:29.305Z,40.87
2019-02-28T01:17:57.121Z,40.53
2019-02-28T01:20:26.152Z,39.50
2019-02-28T01:22:53.653Z,39.23
2019-02-28T01:25:21.147Z,43.03
2019-02-28T01:27:48.659Z,39.47
2019-02-28T01:30:16.209Z,41.33
2019-02-28T01:32:43.725Z,39.27
2019-02-28T01:35:11.338Z,38.37
2019-02-28T01:37:38.864Z,38.40
2019-02-28T01:40:06.419Z,36.20
2019-02-28T01:42:33.926Z,34.93
2019-02-28T01:45:01.442Z,37.37
2019-02-28T01:47:29.007Z,35.73
2019-02-28T01:49:57.724Z,35.23
2019-02-28T01:52:25.801Z,35.47
2019-02-28T01:54:53.337Z,35.60
2019-02-28T01:57:20.821Z,34.80
2019-02-28T01:59:48.307Z,35.13
2019-02-28T02:02:15.813Z,37.80
2019-02-28T02:04:45.770Z,37.20
2019-02-28T02:07:12.643Z,37.00
2019-02-28T02:09:42.741Z,35.73
2019-02-28T02:12:09.437Z,35.17
2019-02-28T02:14:36.988Z,34.50
2019-02-28T02:17:04.466Z,35.17
2019-02-28T02:19:32.001Z,34.10
2019-02-28T02:21:59.484Z,33.20
2019-02-28T02:24:27.976Z,33.13
2019-02-28T02:26:56.311Z,32.60
2019-02-28T02:29:23.825Z,32.37
2019-02-28T02:31:51.312Z,34.13
2019-02-28T02:34:18.841Z,32.80
2019-02-28T02:36:53.035Z,32.57
2019-02-28T02:39:17.606Z,34.13
2019-02-28T02:41:45.100Z,33.93
2019-02-28T02:44:12.582Z,34.40
2019-02-28T02:46:40.069Z,34.87
2019-02-28T02:49:07.626Z,33.80
2019-02-28T02:51:35.108Z,34.13
2019-02-28T02:54:02.621Z,34.80
2019-02-28T02:56:30.326Z,33.37
2019-02-28T02:59:01.230Z,33.40
2019-02-28T03:01:27.106Z,33.73
2019-02-28T03:03:54.602Z,33.10
2019-02-28T03:06:22.156Z,33.67
2019-02-28T03:08:49.630Z,31.40
2019-02-28T03:11:17.122Z,30.27
2019-02-28T03:13:44.821Z,29.37
2019-02-28T03:16:12.375Z,31.40
2019-02-28T03:18:39.893Z,29.80
2019-02-28T03:21:07.349Z,30.17
2019-02-28T03:23:39.791Z,30.07
2019-02-28T03:26:06.929Z,29.37
2019-02-28T03:28:33.520Z,29.37
2019-02-28T03:31:11.707Z,28.90
2019-02-28T03:33:30.285Z,31.13
2019-02-28T03:35:57.773Z,30.03
2019-02-28T03:38:25.329Z,31.43
2019-02-28T03:40:52.869Z,27.77
2019-02-28T03:43:20.353Z,29.73
2019-02-28T03:45:47.865Z,28.77
2019-02-28T03:48:15.406Z,28.53
2019-02-28T03:50:42.897Z,28.30
2019-02-28T03:53:10.382Z,27.27
2019-02-28T03:55:40.873Z,27.03
2019-02-28T03:58:07.186Z,27.97
2019-02-28T04:00:34.689Z,29.67
2019-02-28T04:03:02.187Z,27.63
2019-02-28T04:05:29.732Z,27.50
2019-02-28T04:07:57.260Z,26.87
2019-02-28T04:10:24.722Z,28.37
2019-02-28T04:12:52.209Z,26.73
2019-02-28T04:15:19.956Z,26.70
2019-02-28T04:17:47.468Z,27.07
2019-02-28T04:20:14.948Z,26.83
2019-02-28T04:22:42.494Z,26.80
2019-02-28T04:25:10.007Z,25.63
2019-02-28T04:27:40.453Z,26.47
2019-02-28T04:30:08.406Z,25.57
2019-02-28T04:32:36.115Z,25.40
2019-02-28T04:35:03.782Z,26.47
2019-02-28T04:37:31.291Z,25.10
2019-02-28T04:39:58.853Z,25.50
2019-02-28T04:42:26.341Z,24.80
2019-02-28T04:44:53.827Z,23.77
2019-02-28T04:47:21.321Z,25.20
2019-02-28T04:49:48.805Z,24.37
2019-02-28T04:52:16.353Z,25.70
2019-02-28T04:54:43.856Z,22.87
2019-02-28T04:57:11.361Z,23.47
2019-02-28T04:59:38.943Z,23.17
2019-02-28T05:02:06.427Z,22.87
2019-02-28T05:04:36.153Z,22.13
2019-02-28T05:07:03.282Z,24.00
2019-02-28T05:09:30.899Z,24.97
2019-02-28T05:11:58.402Z,22.93
2019-02-28T05:14:25.925Z,23.73
2019-02-28T05:16:53.417Z,24.93
2019-02-28T05:19:20.911Z,25.37
2019-02-28T05:21:50.634Z,24.73
2019-02-28T05:24:17.799Z,24.07
2019-02-28T05:26:45.282Z,25.00
2019-02-28T05:29:13.053Z,24.10
2019-02-28T05:31:40.750Z,25.40
2019-02-28T05:34:08.285Z,25.17
2019-02-28T05:36:37.935Z,22.23
2019-02-28T05:39:06.017Z,21.30
2019-02-28T05:41:33.569Z,20.53
2019-02-28T05:44:03.276Z,21.97
2019-02-28T05:46:30.365Z,20.23
2019-02-28T05:48:57.903Z,20.20
2019-02-28T05:51:25.845Z,20.63
2019-02-28T05:53:53.362Z,20.80
2019-02-28T05:56:21.123Z,21.27
2019-02-28T05:58:49.382Z,24.17
2019-02-28T06:01:17.979Z,22.23
2019-02-28T06:03:47.889Z,20.80
2019-02-28T06:06:17.306Z,21.20
2019-02-28T06:08:46.603Z,21.77
2019-02-28T06:11:15.354Z,20.90
2019-02-28T06:13:42.933Z,21.77
2019-02-28T06:16:12.497Z,20.30
2019-02-28T06:18:40.147Z,21.97
2019-02-28T06:21:07.651Z,22.33
2019-02-28T06:23:35.142Z,20.47
2019-02-28T06:26:02.658Z,21.30
2019-02-28T06:28:31.151Z,20.93
2019-02-28T06:31:00.249Z,20.17
2019-02-28T06:33:30.540Z,22.87
2019-02-28T06:35:57.285Z,22.60
2019-02-28T06:38:24.879Z,23.00
2019-02-28T06:40:52.379Z,23.50
2019-02-28T06:43:19.909Z,22.77
2019-02-28T06:45:47.587Z,22.37
2019-02-28T06:48:15.109Z,22.93
2019-02-28T06:50:44.668Z,24.00
2019-02-28T06:53:12.001Z,25.00
2019-02-28T06:55:47.106Z,24.83
2019-02-28T06:58:15.776Z,24.30
2019-02-28T07:00:44.206Z,24.67
2019-02-28T07:03:12.597Z,21.50
2019-02-28T07:05:40.123Z,22.17
2019-02-28T07:08:07.634Z,20.77
2019-02-28T07:10:35.247Z,20.27
2019-02-28T07:13:04.626Z,20.13
2019-02-28T07:15:32.039Z,21.83
2019-02-28T07:17:59.569Z,20.10
2019-02-28T07:20:27.151Z,20.27
2019-02-28T07:22:55.730Z,20.73
2019-02-28T07:25:23.329Z,20.73
2019-02-28T07:27:50.819Z,21.47
2019-02-28T07:30:19.294Z,20.53
2019-02-28T07:32:47.101Z,20.53
2019-02-28T07:35:14.627Z,22.43
2019-02-28T07:37:42.107Z,22.37
2019-02-28T07:40:15.516Z,21.80
2019-02-28T07:42:39.792Z,23.60
2019-02-28T07:45:08.461Z,22.60
2019-02-28T07:47:35.945Z,23.27
2019-02-28T07:50:04.057Z,22.20
2019-02-28T07:52:33.535Z,20.13
2019-02-28T07:55:00.867Z,21.43
2019-02-28T07:57:28.372Z,18.47
2019-02-28T07:59:55.899Z,21.63
2019-02-28T08:02:23.377Z,20.60
2019-02-28T08:04:54.271Z,20.97
2019-02-28T08:07:20.205Z,20.70
2019-02-28T08:09:47.714Z,21.77
2019-02-28T08:12:15.229Z,22.20
2019-02-28T08:14:43.667Z,20.20
2019-02-28T08:17:12.097Z,22.40
2019-02-28T08:19:39.651Z,21.30
2019-02-28T08:22:07.129Z,20.43
2019-02-28T08:24:35.888Z,21.20
2019-02-28T08:27:04.075Z,21.97
2019-02-28T08:29:31.573Z,21.07
2019-02-28T08:31:59.108Z,22.40
2019-02-28T08:34:26.709Z,21.43
2019-02-28T08:36:54.200Z,19.03
2019-02-28T08:39:21.834Z,19.07
2019-02-28T08:41:49.685Z,20.47
2019-02-28T08:44:22.758Z,19.33
2019-02-28T08:46:47.335Z,20.37
2019-02-28T08:49:14.929Z,20.23
2019-02-28T08:51:43.253Z,19.30
2019-02-28T08:54:10.876Z,19.97
2019-02-28T08:56:38.388Z,20.23
2019-02-28T08:59:11.810Z,19.93
2019-02-28T09:01:40.087Z,20.17
2019-02-28T09:04:05.712Z,17.13
2019-02-28T09:06:33.390Z,20.03
2019-02-28T09:09:00.890Z,18.20
2019-02-28T09:11:28.479Z,17.77
2019-02-28T09:13:55.979Z,18.23
2019-02-28T09:16:23.474Z,19.50
2019-02-28T09:18:51.004Z,19.17
2019-02-28T09:21:19.108Z,17.80
2019-02-28T09:23:46.712Z,16.77
2019-02-28T09:26:14.217Z,18.73
2019-02-28T09:28:44.421Z,19.33
2019-02-28T09:31:11.101Z,20.37
2019-02-28T09:33:38.597Z,20.80
2019-02-28T09:36:06.114Z,21.27
2019-02-28T09:38:33.627Z,23.27
2019-02-28T09:41:01.445Z,21.43
2019-02-28T09:43:30.463Z,25.20
2019-02-28T09:45:57.975Z,23.63
2019-02-28T09:48:25.458Z,22.37
2019-02-28T09:50:57.777Z,23.10
2019-02-28T09:53:22.309Z,18.90
2019-02-28T09:55:49.796Z,23.20
2019-02-28T09:58:17.353Z,21.83
2019-02-28T10:00:46.912Z,20.97
2019-02-28T10:03:15.507Z,21.63
2019-02-28T10:05:43.462Z,22.50
2019-02-28T10:08:10.973Z,21.97
2019-02-28T10:10:38.457Z,21.60
2019-02-28T10:13:05.958Z,20.27
2019-02-28T10:15:33.441Z,22.33
2019-02-28T10:18:04.063Z,23.27
2019-02-28T10:20:30.236Z,20.83
2019-02-28T10:22:57.753Z,26.97
2019-02-28T10:25:25.328Z,23.83
2019-02-28T10:27:54.516Z,24.03
2019-02-28T10:30:31.124Z,24.00
2019-02-28T10:32:51.942Z,24.47
2019-02-28T10:35:19.403Z,24.77
2019-02-28T10:37:47.147Z,24.87
2019-02-28T10:40:17.860Z,22.77
2019-02-28T10:42:46.173Z,25.30
2019-02-28T10:45:14.044Z,25.00
2019-02-28T10:47:41.516Z,25.20
2019-02-28T10:50:12.093Z,23.53
2019-02-28T10:52:39.573Z,23.60
2019-02-28T10:55:08.501Z,25.17
2019-02-28T10:57:37.210Z,25.50
2019-02-28T11:00:09.848Z,26.23
2019-02-28T11:02:37.370Z,21.83
2019-02-28T11:05:04.974Z,24.77
2019-02-28T11:07:34.211Z,19.87
2019-02-28T11:10:02.387Z,24.27
2019-02-28T11:12:29.877Z,25.03
2019-02-28T11:14:57.392Z,23.20
2019-02-28T11:17:24.872Z,25.23
2019-02-28T11:19:52.933Z,21.97
2019-02-28T11:22:20.471Z,25.03
2019-02-28T11:24:47.960Z,25.97
2019-02-28T11:27:16.071Z,25.83
2019-02-28T11:29:44.726Z,22.27
2019-02-28T11:32:12.238Z,26.03
2019-02-28T11:34:39.739Z,24.80
2019-02-28T11:37:08.894Z,25.10
2019-02-28T11:39:36.582Z,24.70
2019-02-28T11:42:04.086Z,25.67
2019-02-28T11:44:31.584Z,24.03
2019-02-28T11:46:59.188Z,24.83
2019-02-28T11:49:28.607Z,19.80
2019-02-28T11:51:56.084Z,22.83
2019-02-28T11:54:23.606Z,22.47
2019-02-28T11:56:51.099Z,22.67
2019-02-28T11:59:18.681Z,23.27
2019-02-28T12:01:48.358Z,21.30
2019-02-28T12:04:15.528Z,20.90
2019-02-28T12:06:43.024Z,22.10
2019-02-28T12:09:11.149Z,19.97
2019-02-28T12:11:38.633Z,20.77
2019-02-28T12:14:06.367Z,20.83
2019-02-28T12:16:35.272Z,20.63
2019-02-28T12:19:02.890Z,22.00
2019-02-28T12:21:30.386Z,20.67
2019-02-28T12:23:58.429Z,18.80
2019-02-28T12:26:27.341Z,22.00
2019-02-28T12:28:54.836Z,18.87
2019-02-28T12:31:22.329Z,17.13
2019-02-28T12:33:49.818Z,21.17
2019-02-28T12:36:17.341Z,23.47
2019-02-28T12:38:44.845Z,20.27
2019-02-28T12:41:12.364Z,20.07
2019-02-28T12:43:40.589Z,23.20
2019-02-28T12:46:09.021Z,22.20
2019-02-28T12:48:36.576Z,21.13
2019-02-28T12:51:05.388Z,21.17
2019-02-28T12:53:33.758Z,21.87
2019-02-28T12:56:01.397Z,17.13
2019-02-28T12:58:36.518Z,18.17
2019-02-28T13:01:00.074Z,23.87
2019-02-28T13:03:27.648Z,24.30
2019-02-28T13:05:55.308Z,22.97
2019-02-28T13:08:22.951Z,22.70
2019-02-28T13:10:50.436Z,24.37
2019-02-28T13:13:21.594Z,23.00
2019-02-28T13:15:49.174Z,22.00
2019-02-28T13:18:16.582Z,22.47
2019-02-28T13:20:44.120Z,26.03
2019-02-28T13:23:11.708Z,23.13
2019-02-28T13:25:39.232Z,25.37
2019-02-28T13:28:06.766Z,24.73
2019-02-28T13:30:34.268Z,25.43
2019-02-28T13:33:01.837Z,24.97
2019-02-28T13:35:30.032Z,26.43
2019-02-28T13:37:57.524Z,24.57
2019-02-28T13:40:25.092Z,24.67
2019-02-28T13:42:52.692Z,24.30
2019-02-28T13:45:23.170Z,23.73
2019-02-28T13:47:49.790Z,23.87
2019-02-28T13:50:22.162Z,26.60
2019-02-28T13:52:52.093Z,26.53
2019-02-28T13:55:18.956Z,26.00
2019-02-28T13:57:47.546Z,25.17
2019-02-28T14:00:19.827Z,23.10
2019-02-28T14:02:47.462Z,22.60
2019-02-28T14:05:14.983Z,23.90
2019-02-28T14:07:42.561Z,22.33
2019-02-28T14:10:11.464Z,21.27
2019-02-28T14:12:39.142Z,21.13
2019-02-28T14:15:08.529Z,23.83
2019-02-28T14:17:36.470Z,21.60
2019-02-28T14:20:04.628Z,22.43
2019-02-28T14:22:32.150Z,20.63
2019-02-28T14:25:05.161Z,18.27
2019-02-28T14:27:29.040Z,20.07
2019-02-28T14:29:56.643Z,15.57
2019-02-28T14:32:24.203Z,18.50
2019-02-28T14:34:51.717Z,19.57
2019-02-28T14:37:19.630Z,15.87
2019-02-28T14:39:47.978Z,21.03
2019-02-28T14:42:15.488Z,15.77
2019-02-28T14:44:43.080Z,20.80
2019-02-28T14:47:10.769Z,22.43
2019-02-28T14:49:38.283Z,22.70
2019-02-28T14:52:05.814Z,21.63
2019-02-28T14:54:33.517Z,24.73
2019-02-28T14:57:01.087Z,21.43
2019-02-28T14:59:31.011Z,24.23
2019-02-28T15:01:57.940Z,24.03
2019-02-28T15:04:25.482Z,22.80
2019-02-28T15:06:53.002Z,23.20
2019-02-28T15:09:20.518Z,22.23
2019-02-28T15:11:48.240Z,23.50
2019-02-28T15:14:15.781Z,21.30
2019-02-28T15:16:43.311Z,23.03
2019-02-28T15:19:10.966Z,21.47
2019-02-28T15:21:42.269Z,19.97
2019-02-28T15:24:08.531Z,20.40
2019-02-28T15:26:37.157Z,20.90
2019-02-28T15:29:04.703Z,25.73
2019-02-28T15:31:33.133Z,45.30
2019-02-28T15:34:02.240Z,54.60
2019-02-28T15:36:30.284Z,47.47
2019-02-28T15:38:57.965Z,45.83
2019-02-28T15:41:25.638Z,28.17
2019-02-28T15:43:53.702Z,20.93
2019-02-28T15:46:21.922Z,20.20
2019-02-28T15:48:49.535Z,21.53
2019-02-28T15:51:17.064Z,18.43
2019-02-28T15:53:46.847Z,18.07
2019-02-28T15:56:19.729Z,15.67
2019-02-28T15:58:44.033Z,15.53
2019-02-28T16:01:11.592Z,16.87
2019-02-28T16:03:39.131Z,16.13
2019-02-28T16:06:06.689Z,15.47
2019-02-28T16:08:34.248Z,17.70
2019-02-28T16:11:03.319Z,16.90
2019-02-28T16:13:31.248Z,17.70
2019-02-28T16:15:58.861Z,18.20
2019-02-28T16:18:26.362Z,21.67
2019-02-28T16:20:53.939Z,21.53
2019-02-28T16:23:23.536Z,21.43
2019-02-28T16:25:50.891Z,21.30
2019-02-28T16:28:18.423Z,18.53
2019-02-28T16:30:45.994Z,18.50
2019-02-28T16:33:13.523Z,22.40
2019-02-28T16:35:41.082Z,21.80
2019-02-28T16:38:10.117Z,18.57
2019-02-28T16:40:37.989Z,21.93
2019-02-28T16:43:05.569Z,19.87
2019-02-28T16:45:37.477Z,16.17
2019-02-28T16:48:13.937Z,18.57
2019-02-28T16:50:41.462Z,17.23
2019-02-28T16:53:14.995Z,20.53
2019-02-28T16:55:38.301Z,19.10
2019-02-28T16:58:05.869Z,17.00
2019-02-28T17:00:33.436Z,16.73
2019-02-28T17:03:04.087Z,18.03
2019-02-28T17:05:30.363Z,17.23
2019-02-28T17:07:57.889Z,17.40
2019-02-28T17:10:35.488Z,16.27
2019-02-28T17:13:25.159Z,21.93
2019-02-28T17:16:15.174Z,18.33
2019-02-28T17:18:42.710Z,20.17
2019-02-28T17:21:16.882Z,22.03
2019-02-28T17:23:39.700Z,22.53
2019-02-28T17:26:07.216Z,24.00
2019-02-28T17:28:46.566Z,26.13
2019-02-28T17:31:22.840Z,26.73
2019-02-28T17:33:50.447Z,27.27
2019-02-28T17:36:17.989Z,26.03
2019-02-28T17:38:45.505Z,22.13
2019-02-28T17:41:13.080Z,21.87
2019-02-28T17:43:40.963Z,21.17
2019-02-28T17:46:09.716Z,23.00
2019-02-28T17:49:07.370Z,20.37
2019-02-28T17:51:59.525Z,20.67
2019-02-28T17:54:46.325Z,22.17
2019-02-28T17:57:53.869Z,18.30
2019-02-28T18:00:53.178Z,21.93
2019-02-28T18:03:51.086Z,22.33
2019-02-28T18:06:55.134Z,28.83
2019-02-28T18:10:37.706Z,23.00
2019-02-28T18:13:20.214Z,22.37
2019-02-28T18:16:21.620Z,23.90
2019-02-28T18:19:36.900Z,24.20
2019-02-28T18:22:22.606Z,22.80
2019-02-28T18:25:52.326Z,24.17
2019-02-28T18:29:05.703Z,25.73
2019-02-28T18:31:33.224Z,21.80
2019-02-28T18:34:06.303Z,21.60
2019-02-28T18:36:33.851Z,23.80
2019-02-28T18:39:01.369Z,25.33
2019-02-28T18:41:28.876Z,24.63
2019-02-28T18:43:56.640Z,24.47
2019-02-28T18:46:24.208Z,25.23
2019-02-28T18:48:54.380Z,26.97
2019-02-28T18:51:21.087Z,25.07
2019-02-28T18:53:48.602Z,26.47
2019-02-28T18:56:16.183Z,26.93
2019-02-28T18:58:43.733Z,26.90
2019-02-28T19:01:11.280Z,26.30
2019-02-28T19:03:38.870Z,14.60
2019-02-28T19:06:06.618Z,15.83
2019-02-28T19:08:34.243Z,10.90
2019-02-28T19:11:01.786Z,10.87
2019-02-28T19:13:29.329Z,12.03
2019-02-28T19:15:57.070Z,6.57
2019-02-28T19:18:24.644Z,5.97
2019-02-28T19:20:52.178Z,7.47
2019-02-28T19:23:19.744Z,4.67
2019-02-28T19:25:47.276Z,2.33
2019-02-28T19:28:14.822Z,2.43
2019-02-28T19:30:42.374Z,9.50
2019-02-28T19:33:09.905Z,4.53
2019-02-28T19:35:37.462Z,4.33
2019-02-28T19:38:05.030Z,2.50
2019-02-28T19:40:32.613Z,3.50
2019-02-28T19:43:00.131Z,2.90
2019-02-28T19:45:28.384Z,3.93
2019-02-28T19:47:55.872Z,3.27
2019-02-28T19:50:23.453Z,1.90
2019-02-28T19:52:50.972Z,3.17
2019-02-28T19:55:18.545Z,3.53
2019-02-28T19:57:46.061Z,4.27
2019-02-28T20:00:14.777Z,4.90
2019-02-28T20:02:42.384Z,3.60
2019-02-28T20:05:10.087Z,3.43
2019-02-28T20:07:37.633Z,3.03
2019-02-28T20:10:07.878Z,2.30
2019-02-28T20:12:35.385Z,2.70
2019-02-28T20:15:03.531Z,3.30
2019-02-28T20:17:31.086Z,2.80
2019-02-28T20:19:58.672Z,3.60
2019-02-28T20:22:26.536Z,2.60
2019-02-28T20:24:54.100Z,3.57
2019-02-28T20:27:21.632Z,2.80
2019-02-28T20:29:55.063Z,3.47
2019-02-28T20:32:18.479Z,4.53
2019-02-28T20:34:45.982Z,3.80
2019-02-28T20:37:13.498Z,3.77
2019-02-28T20:39:41.007Z,4.80
2019-02-28T20:42:08.558Z,5.00
2019-02-28T20:44:36.143Z,6.67
2019-02-28T20:47:03.648Z,5.27
2019-02-28T20:49:31.222Z,5.40
2019-02-28T20:51:58.750Z,5.30
2019-02-28T20:54:26.263Z,4.53
2019-02-28T20:56:53.827Z,5.23
2019-02-28T20:59:21.343Z,5.30
2019-02-28T21:01:48.879Z,5.63
2019-02-28T21:04:16.397Z,6.20
2019-02-28T21:06:43.974Z,5.97
2019-02-28T21:09:14.158Z,5.47
2019-02-28T21:11:41.683Z,5.17
2019-02-28T21:14:09.263Z,4.70
2019-02-28T21:16:36.782Z,5.40
2019-02-28T21:19:04.309Z,5.13
2019-02-28T21:21:31.855Z,5.33
2019-02-28T21:23:59.657Z,5.13
2019-02-28T21:26:27.177Z,5.27
2019-02-28T21:28:54.740Z,4.70
2019-02-28T21:31:22.271Z,5.23
2019-02-28T21:33:49.792Z,4.90
2019-02-28T21:36:17.333Z,6.30
2019-02-28T21:38:44.915Z,7.67
2019-02-28T21:41:12.441Z,9.13
2019-02-28T21:43:39.995Z,7.97
2019-02-28T21:46:07.538Z,9.20
2019-02-28T21:48:35.054Z,12.03
2019-02-28T21:51:02.913Z,12.50
2019-02-28T21:53:30.447Z,13.23
2019-02-28T21:55:57.948Z,14.33
2019-02-28T21:58:25.502Z,13.10
2019-02-28T22:00:53.086Z,10.63
2019-02-28T22:03:20.684Z,9.43
2019-02-28T22:05:48.231Z,9.97
2019-02-28T22:08:15.733Z,10.37
2019-02-28T22:10:43.254Z,10.67
2019-02-28T22:13:10.795Z,8.87
2019-02-28T22:15:38.334Z,8.23
2019-02-28T22:18:05.846Z,9.07
2019-02-28T22:20:33.365Z,9.70
2019-02-28T22:23:00.894Z,7.90
2019-02-28T22:25:28.387Z,8.83
2019-02-28T22:27:55.923Z,10.17
2019-02-28T22:30:57.669Z,9.43
2019-02-28T22:33:40.666Z,8.63
2019-02-28T22:36:09.875Z,9.53
2019-02-28T22:38:37.413Z,10.00
2019-02-28T22:41:04.958Z,10.40
2019-02-28T22:43:32.486Z,12.23
2019-02-28T22:46:00.054Z,13.70
2019-02-28T22:48:27.790Z,13.83
2019-02-28T22:50:55.298Z,12.33
2019-02-28T22:53:22.848Z,14.03
2019-02-28T22:55:50.342Z,18.13
2019-02-28T22:58:17.896Z,16.97
2019-02-28T23:00:57.862Z,16.63
2019-02-28T23:03:26.079Z,19.00
2019-02-28T23:05:53.583Z,18.73
2019-02-28T23:08:21.171Z,19.73
2019-02-28T23:10:48.733Z,21.43
2019-02-28T23:13:16.256Z,20.93
2019-02-28T23:15:43.843Z,21.20
2019-02-28T23:18:11.341Z,21.43
2019-02-28T23:20:38.854Z,22.67
2019-02-28T23:23:06.405Z,23.70
2019-02-28T23:25:33.949Z,22.60
2019-02-28T23:28:27.573Z,22.53
2019-02-28T23:31:10.541Z,22.80
2019-02-28T23:33:38.078Z,26.03
2019-02-28T23:36:05.571Z,23.90
2019-02-28T23:38:35.871Z,25.63
2019-02-28T23:41:03.855Z,23.30
2019-02-28T23:43:31.388Z,23.97
2019-02-28T23:45:58.899Z,24.80
2019-02-28T23:48:26.411Z,24.87
2019-02-28T23:50:53.914Z,26.23
2019-02-28T23:53:21.448Z,25.43
2019-02-28T23:55:48.980Z,26.63
2019-02-28T23:58:16.479Z,26.60
